Terminal Aerodrome Forecast
Issued by NWS Twin Cities, MN

Home | Current Version | Previous Version | Text Only | Print | Product List | Glossary On
Versions: 1 2 3 4 5 6 7 8 9 10 11 12 13 14 15 16 17 18 19 20 21 22 23
000
FTUS43 KMPX 252300
TAFSTC
TAF
KSTC 252328Z 2600/2624 13005KT P6SM OVC040
     FM260600 10005KT 6SM -SN BKN025 OVC050
     FM261000 04007KT 2SM -SN BR OVC018
     FM261700 35010KT 6SM -SN OVC012
     FM262200 33010KT P6SM SCT015=

USA.gov is the U.S. government's official web portal to all federal, state and local government web resources and services.